createdAt,value
2024-01-15T00:01:58.620Z,100367.69
2024-01-15T00:04:25.059Z,100363.66
2024-01-15T00:06:51.614Z,100359.47
2024-01-15T00:09:18.344Z,100363.75
2024-01-15T00:11:44.790Z,100355.97
2024-01-15T00:14:11.196Z,100351.94
2024-01-15T00:16:37.603Z,100346.94
2024-01-15T00:19:04.578Z,100342.72
2024-01-15T00:21:31.055Z,100349.53
2024-01-15T00:23:57.511Z,100345.31
2024-01-15T00:26:23.905Z,100343.84
2024-01-15T00:28:50.354Z,100335.28
2024-01-15T00:31:20.038Z,100338.69
2024-01-15T00:33:47.028Z,100331.00
2024-01-15T00:36:13.736Z,100328.84
2024-01-15T00:38:40.211Z,100325.75
2024-01-15T00:41:06.647Z,100324.22
2024-01-15T00:43:33.078Z,100312.25
2024-01-15T00:45:59.476Z,100315.69
2024-01-15T00:48:26.032Z,100314.84
2024-01-15T00:50:52.692Z,100305.31
2024-01-15T00:53:19.166Z,100306.38
2024-01-15T00:55:45.566Z,100301.38
2024-01-15T00:58:12.042Z,100314.50
2024-01-15T01:00:38.502Z,100300.88
2024-01-15T01:03:05.163Z,100303.56
2024-01-15T01:05:31.691Z,100307.91
2024-01-15T01:07:58.104Z,100303.72
2024-01-15T01:10:24.515Z,100302.97
2024-01-15T01:12:51.116Z,100297.09
2024-01-15T01:15:17.906Z,100299.88
2024-01-15T01:17:44.551Z,100292.91
2024-01-15T01:20:11.997Z,100282.78
2024-01-15T01:22:40.306Z,100287.31
2024-01-15T01:25:07.224Z,100285.63
2024-01-15T01:27:33.769Z,100294.16
2024-01-15T01:30:00.534Z,100294.00
2024-01-15T01:32:27.028Z,100294.91
2024-01-15T01:34:53.501Z,100299.50
2024-01-15T01:37:20.115Z,100299.50
2024-01-15T01:39:46.683Z,100301.66
2024-01-15T01:42:13.596Z,100305.34
2024-01-15T01:44:40.101Z,100308.84
2024-01-15T01:47:07.156Z,100293.28
2024-01-15T01:49:34.793Z,100295.00
2024-01-15T01:52:03.559Z,100292.97
2024-01-15T01:54:32.297Z,100292.72
2024-01-15T01:56:59.407Z,100289.31
2024-01-15T01:59:29.590Z,100282.44
2024-01-15T02:01:56.424Z,100288.97
2024-01-15T02:04:27.042Z,100295.41
2024-01-15T02:06:53.706Z,100292.84
2024-01-15T02:09:20.353Z,100282.72
2024-01-15T02:11:49.948Z,100305.47
2024-01-15T02:14:16.803Z,100309.47
2024-01-15T02:16:43.343Z,100321.63
2024-01-15T02:19:19.045Z,100321.84
2024-01-15T02:21:46.059Z,100299.56
2024-01-15T02:24:12.867Z,100304.94
2024-01-15T02:26:39.524Z,100312.06
2024-01-15T02:29:07.955Z,100293.25
2024-01-15T02:31:34.420Z,100296.94
2024-01-15T02:34:00.989Z,100304.91
2024-01-15T02:36:27.575Z,100294.22
2024-01-15T02:38:54.110Z,100300.44
2024-01-15T02:41:20.503Z,100296.63
2024-01-15T02:43:46.950Z,100289.94
2024-01-15T02:46:13.398Z,100290.03
2024-01-15T02:48:39.913Z,100282.03
2024-01-15T02:51:06.497Z,100281.88
2024-01-15T02:53:33.003Z,100281.53
2024-01-15T02:55:59.426Z,100281.53
2024-01-15T02:58:25.840Z,100275.66
2024-01-15T03:00:52.328Z,100276.69
2024-01-15T03:03:19.014Z,100277.19
2024-01-15T03:05:45.568Z,100274.47
2024-01-15T03:08:12.144Z,100280.03
2024-01-15T03:10:38.580Z,100275.00
2024-01-15T03:13:04.991Z,100271.50
2024-01-15T03:15:31.433Z,100273.81
2024-01-15T03:17:57.912Z,100281.59
2024-01-15T03:20:24.328Z,100273.16
2024-01-15T03:22:51.156Z,100274.34
2024-01-15T03:25:17.587Z,100274.59
2024-01-15T03:27:44.129Z,100274.88
2024-01-15T03:30:11.278Z,100271.81
2024-01-15T03:32:37.815Z,100272.88
2024-01-15T03:35:04.819Z,100279.09
2024-01-15T03:37:31.269Z,100294.00
2024-01-15T03:39:58.065Z,100287.28
2024-01-15T03:42:24.620Z,100298.50
2024-01-15T03:44:51.122Z,100305.91
2024-01-15T03:47:17.508Z,100302.97
2024-01-15T03:49:44.057Z,100293.13
2024-01-15T03:52:10.570Z,100284.25
2024-01-15T03:54:37.285Z,100275.53
2024-01-15T03:57:03.942Z,100265.16
2024-01-15T03:59:30.358Z,100256.78
2024-01-15T04:01:56.844Z,100254.63
2024-01-15T04:04:23.607Z,100249.28
2024-01-15T04:06:50.214Z,100249.81
2024-01-15T04:09:16.910Z,100240.84
2024-01-15T04:11:43.564Z,100242.13
2024-01-15T04:14:10.059Z,100241.63
2024-01-15T04:16:38.130Z,100230.59
2024-01-15T04:19:04.736Z,100237.59
2024-01-15T04:21:31.266Z,100239.47
2024-01-15T04:23:57.710Z,100235.94
2024-01-15T04:26:24.134Z,100235.09
2024-01-15T04:28:50.656Z,100232.59
2024-01-15T04:31:28.477Z,100225.91
2024-01-15T04:33:55.382Z,100221.53
2024-01-15T04:36:22.036Z,100224.22
2024-01-15T04:38:48.546Z,100223.22
2024-01-15T04:41:16.886Z,100212.78
2024-01-15T04:43:43.402Z,100213.53
2024-01-15T04:46:09.868Z,100213.53
2024-01-15T04:48:36.624Z,100200.56
2024-01-15T04:51:05.758Z,100204.16
2024-01-15T04:53:32.237Z,100198.28
2024-01-15T04:55:58.679Z,100205.97
2024-01-15T04:58:27.823Z,100211.66
2024-01-15T05:00:55.600Z,100219.69
2024-01-15T05:03:22.513Z,100217.50
2024-01-15T05:05:49.211Z,100205.94
2024-01-15T05:08:15.725Z,100204.78
2024-01-15T05:10:42.219Z,100198.75
2024-01-15T05:13:08.598Z,100206.63
2024-01-15T05:15:35.090Z,100204.38
2024-01-15T05:18:01.652Z,100199.84
2024-01-15T05:20:28.219Z,100193.56
2024-01-15T05:22:54.666Z,100181.41
2024-01-15T05:25:23.933Z,100194.03
2024-01-15T05:27:50.431Z,100192.19
2024-01-15T05:30:17.728Z,100183.41
2024-01-15T05:32:44.335Z,100200.75
2024-01-15T05:35:10.765Z,100194.03
2024-01-15T05:37:37.273Z,100197.38
2024-01-15T05:40:05.762Z,100192.84
2024-01-15T05:42:33.056Z,100204.06
2024-01-15T05:45:00.772Z,100199.63
2024-01-15T05:47:27.328Z,100202.22
2024-01-15T05:49:54.016Z,100201.38
2024-01-15T05:52:21.941Z,100203.88
2024-01-15T05:54:49.146Z,100202.97
2024-01-15T05:57:15.823Z,100203.88
2024-01-15T05:59:42.351Z,100214.94
2024-01-15T06:02:08.803Z,100217.44
2024-01-15T06:04:35.428Z,100215.59
2024-01-15T06:07:02.029Z,100212.81
2024-01-15T06:09:29.332Z,100212.09
2024-01-15T06:11:56.365Z,100218.38
2024-01-15T06:14:22.802Z,100221.22
2024-01-15T06:16:50.284Z,100205.94
2024-01-15T06:19:16.843Z,100201.25
2024-01-15T06:21:43.421Z,100200.84
2024-01-15T06:24:11.138Z,100194.16
2024-01-15T06:26:37.606Z,100203.06
2024-01-15T06:29:04.067Z,100197.88
2024-01-15T06:31:30.578Z,100198.94
2024-01-15T06:33:57.484Z,100195.44
2024-01-15T06:36:24.077Z,100199.78
2024-01-15T06:38:50.521Z,100192.81
2024-01-15T06:41:16.912Z,100185.03
2024-01-15T06:43:43.305Z,100192.81
2024-01-15T06:46:10.139Z,100185.03
2024-01-15T06:48:37.398Z,100190.31
2024-01-15T06:51:04.095Z,100195.59
2024-01-15T06:53:30.492Z,100183.72
2024-01-15T06:55:56.906Z,100185.56
2024-01-15T06:58:23.291Z,100175.34
2024-01-15T07:00:49.796Z,100173.78
2024-01-15T07:03:16.425Z,100179.06
2024-01-15T07:05:43.061Z,100172.03
2024-01-15T07:08:09.584Z,100177.94
2024-01-15T07:10:37.655Z,100172.69
2024-01-15T07:13:05.879Z,100172.50
2024-01-15T07:15:32.618Z,100176.69
2024-01-15T07:17:59.220Z,100179.84
2024-01-15T07:20:25.713Z,100198.78
2024-01-15T07:22:52.086Z,100215.25
2024-01-15T07:25:18.468Z,100231.75
2024-01-15T07:27:45.884Z,100215.34
2024-01-15T07:30:13.564Z,100209.50
2024-01-15T07:32:41.706Z,100193.94
2024-01-15T07:35:08.436Z,100198.34
2024-01-15T07:37:34.829Z,100194.09
2024-01-15T07:40:01.592Z,100194.84
2024-01-15T07:42:28.327Z,100187.97
2024-01-15T07:44:54.845Z,100192.09
2024-01-15T07:47:21.445Z,100186.91
2024-01-15T07:49:48.171Z,100204.97
2024-01-15T07:52:14.812Z,100216.19
2024-01-15T07:54:41.835Z,100218.78
2024-01-15T07:57:08.325Z,100207.31
2024-01-15T07:59:36.119Z,100210.00
2024-01-15T08:02:02.770Z,100210.84
2024-01-15T08:04:29.498Z,100208.97
2024-01-15T08:06:56.128Z,100208.78
2024-01-15T08:09:23.006Z,100201.78
2024-01-15T08:11:52.620Z,100199.19
2024-01-15T08:14:19.318Z,100190.81
2024-01-15T08:16:45.704Z,100191.06
2024-01-15T08:19:12.425Z,100184.31
2024-01-15T08:21:39.163Z,100187.06
2024-01-15T08:24:06.504Z,100190.66
2024-01-15T08:26:33.537Z,100208.00
2024-01-15T08:29:00.125Z,100195.75
2024-01-15T08:31:27.076Z,100197.28
2024-01-15T08:33:53.889Z,100211.00
2024-01-15T08:36:20.529Z,100220.28
2024-01-15T08:38:46.971Z,100202.13
2024-01-15T08:41:14.010Z,100200.47
2024-01-15T08:43:40.648Z,100198.59
2024-01-15T08:46:07.331Z,100193.31
2024-01-15T08:48:33.860Z,100197.34
2024-01-15T08:51:00.352Z,100195.91
2024-01-15T08:53:26.987Z,100190.66
2024-01-15T08:55:53.495Z,100203.03
2024-01-15T08:58:20.038Z,100194.09
2024-01-15T09:00:46.610Z,100204.50
2024-01-15T09:03:13.225Z,100207.00
2024-01-15T09:05:39.969Z,100205.41
2024-01-15T09:08:06.596Z,100210.88
2024-01-15T09:10:33.292Z,100204.69
2024-01-15T09:13:01.371Z,100222.22
2024-01-15T09:15:28.765Z,100238.47
2024-01-15T09:17:55.476Z,100232.69
2024-01-15T09:20:22.010Z,100216.53
2024-01-15T09:22:48.389Z,100210.72
2024-01-15T09:25:15.052Z,100203.03
2024-01-15T09:27:41.518Z,100205.41
2024-01-15T09:30:09.490Z,100208.22
2024-01-15T09:32:36.513Z,100206.50
2024-01-15T09:35:03.234Z,100213.56
2024-01-15T09:37:41.233Z,100215.44
2024-01-15T09:40:15.699Z,100213.69
2024-01-15T09:42:43.378Z,100209.16
2024-01-15T09:45:11.116Z,100205.28
2024-01-15T09:47:41.524Z,100203.81
2024-01-15T09:50:10.597Z,100195.50
2024-01-15T09:52:37.429Z,100200.66
2024-01-15T09:55:06.381Z,100205.09
2024-01-15T09:57:34.229Z,100208.53
2024-01-15T10:00:02.320Z,100209.91
2024-01-15T10:02:28.805Z,100214.75
2024-01-15T10:04:55.875Z,100219.19
2024-01-15T10:07:23.248Z,100220.56
2024-01-15T10:09:49.797Z,100216.44
2024-01-15T10:12:16.562Z,100229.38
2024-01-15T10:14:44.464Z,100225.88
2024-01-15T10:17:18.597Z,100203.81
2024-01-15T10:19:50.143Z,100209.66
2024-01-15T10:22:19.265Z,100209.94
2024-01-15T10:24:48.203Z,100210.38
2024-01-15T10:27:15.262Z,100224.78
2024-01-15T10:29:43.320Z,100226.56
2024-01-15T10:32:10.480Z,100230.44
2024-01-15T10:34:41.863Z,100215.91
2024-01-15T10:37:09.303Z,100212.41
2024-01-15T10:39:36.118Z,100228.25
2024-01-15T10:42:02.843Z,100217.47
2024-01-15T10:44:30.249Z,100212.19
2024-01-15T10:46:58.270Z,100221.25
2024-01-15T10:49:31.866Z,100220.75
2024-01-15T10:52:00.491Z,100215.44
2024-01-15T10:54:28.893Z,100218.41
2024-01-15T10:56:57.624Z,100219.38
2024-01-15T10:59:24.571Z,100227.63
2024-01-15T11:01:55.047Z,100235.03
2024-01-15T11:04:24.131Z,100236.63
2024-01-15T11:06:57.901Z,100241.16
2024-01-15T11:09:25.181Z,100248.16
2024-01-15T11:12:07.248Z,100241.63
2024-01-15T11:14:46.874Z,100250.19
2024-01-15T11:17:14.730Z,100252.00
2024-01-15T11:19:46.313Z,100252.25
2024-01-15T11:22:31.020Z,100253.75
2024-01-15T11:25:02.338Z,100256.53
2024-01-15T11:27:41.033Z,100257.84
2024-01-15T11:30:10.354Z,100258.31
2024-01-15T11:32:37.077Z,100245.75
2024-01-15T11:35:04.891Z,100244.56
2024-01-15T11:37:51.647Z,100238.06
2024-01-15T11:40:22.311Z,100237.91
2024-01-15T11:42:50.345Z,100247.97
2024-01-15T11:45:20.385Z,100246.44
2024-01-15T11:48:11.941Z,100256.53
2024-01-15T11:50:48.807Z,100249.63
2024-01-15T11:53:29.159Z,100264.00
2024-01-15T11:55:59.851Z,100270.56
2024-01-15T11:58:26.732Z,100261.88
2024-01-15T12:00:54.157Z,100250.19
2024-01-15T12:03:24.594Z,100248.59
2024-01-15T12:05:53.387Z,100243.81
2024-01-15T12:08:27.012Z,100234.91
2024-01-15T12:10:54.060Z,100260.44
2024-01-15T12:13:21.495Z,100270.88
2024-01-15T12:15:49.605Z,100280.94
2024-01-15T12:18:18.491Z,100279.59
2024-01-15T12:20:50.352Z,100287.28
2024-01-15T12:23:18.423Z,100297.22
2024-01-15T12:25:45.312Z,100301.66
2024-01-15T12:28:11.870Z,100301.13
2024-01-15T12:30:39.258Z,100302.06
2024-01-15T12:33:06.805Z,100299.34
2024-01-15T12:35:35.066Z,100291.84
2024-01-15T12:38:03.802Z,100308.94
2024-01-15T12:40:33.031Z,100319.34
2024-01-15T12:42:59.713Z,100312.81
2024-01-15T12:45:26.745Z,100317.09
2024-01-15T12:47:53.764Z,100316.53
2024-01-15T12:50:21.170Z,100308.78
2024-01-15T12:52:48.589Z,100302.47
2024-01-15T12:55:15.638Z,100314.63
2024-01-15T12:57:42.215Z,100313.34
2024-01-15T13:00:14.217Z,100307.50
2024-01-15T13:02:42.601Z,100310.78
2024-01-15T13:05:12.265Z,100311.50
2024-01-15T13:07:39.461Z,100301.47
2024-01-15T13:10:06.881Z,100305.34
2024-01-15T13:12:34.792Z,100313.34
2024-01-15T13:15:04.478Z,100315.94
2024-01-15T13:17:30.998Z,100317.03
2024-01-15T13:19:57.671Z,100327.53
2024-01-15T13:22:25.946Z,100315.47
2024-01-15T13:24:52.667Z,100314.69
2024-01-15T13:27:19.193Z,100314.88
2024-01-15T13:29:45.965Z,100300.84
2024-01-15T13:32:18.451Z,100309.69
2024-01-15T13:34:44.907Z,100304.38
2024-01-15T13:37:11.362Z,100305.78
2024-01-15T13:39:37.861Z,100309.56
2024-01-15T13:42:04.515Z,100314.34
2024-01-15T13:44:30.993Z,100310.78
2024-01-15T13:46:58.402Z,100321.94
2024-01-15T13:49:25.256Z,100314.88
2024-01-15T13:51:51.871Z,100329.34
2024-01-15T13:54:18.390Z,100332.44
2024-01-15T13:56:45.517Z,100332.53
2024-01-15T13:59:11.947Z,100333.00
2024-01-15T14:01:38.374Z,100340.69
2024-01-15T14:04:05.137Z,100350.94
2024-01-15T14:06:31.849Z,100338.47
2024-01-15T14:08:58.444Z,100337.81
2024-01-15T14:11:24.868Z,100342.38
2024-01-15T14:13:51.329Z,100344.97
2024-01-15T14:16:25.821Z,100350.16
2024-01-15T14:18:52.845Z,100351.28
2024-01-15T14:21:19.575Z,100357.59
2024-01-15T14:23:46.011Z,100355.56
2024-01-15T14:26:12.528Z,100359.47
2024-01-15T14:28:39.807Z,100358.53
2024-01-15T14:31:06.634Z,100358.91
2024-01-15T14:33:33.886Z,100358.06
2024-01-15T14:36:01.167Z,100361.44
2024-01-15T14:38:27.537Z,100367.47
2024-01-15T14:40:54.011Z,100374.16
2024-01-15T14:43:21.110Z,100379.19
2024-01-15T14:45:47.768Z,100389.03
2024-01-15T14:48:14.746Z,100390.69
2024-01-15T14:50:41.467Z,100395.88
2024-01-15T14:53:07.873Z,100402.53
2024-01-15T14:55:34.298Z,100406.06
2024-01-15T14:58:00.824Z,100404.19
2024-01-15T15:00:27.321Z,100411.09
2024-01-15T15:02:53.868Z,100412.56
2024-01-15T15:05:21.191Z,100416.78
2024-01-15T15:07:47.707Z,100418.13
2024-01-15T15:10:14.278Z,100417.00
2024-01-15T15:12:40.769Z,100423.47
2024-01-15T15:15:10.869Z,100422.50
2024-01-15T15:17:40.329Z,100428.97
2024-01-15T15:20:08.143Z,100425.19
2024-01-15T15:22:34.731Z,100428.22
2024-01-15T15:25:01.353Z,100430.16
2024-01-15T15:27:28.453Z,100420.78
2024-01-15T15:29:55.071Z,100427.53
2024-01-15T15:32:21.630Z,100421.59
2024-01-15T15:34:48.271Z,100427.63
2024-01-15T15:37:17.655Z,100440.53
2024-01-15T15:39:44.672Z,100464.69
2024-01-15T15:42:11.325Z,100466.03
2024-01-15T15:44:38.964Z,100462.97
2024-01-15T15:47:05.656Z,100454.81
2024-01-15T15:49:32.111Z,100470.25
2024-01-15T15:51:58.637Z,100475.53
2024-01-15T15:54:25.123Z,100480.38
2024-01-15T15:56:54.386Z,100487.00
2024-01-15T15:59:22.237Z,100483.47
2024-01-15T16:01:49.415Z,100485.66
2024-01-15T16:04:16.223Z,100494.16
2024-01-15T16:06:43.874Z,100507.66
2024-01-15T16:09:13.070Z,100511.94
2024-01-15T16:11:39.582Z,100517.13
2024-01-15T16:14:06.038Z,100522.00
2024-01-15T16:23:11.568Z,100520.00
2024-01-15T16:23:24.574Z,100515.88
2024-01-15T16:23:40.166Z,100521.50
2024-01-15T16:24:54.392Z,100520.50
2024-01-15T16:27:22.378Z,100518.31
2024-01-15T16:29:48.905Z,100524.59
2024-01-15T16:32:15.452Z,100527.50
2024-01-15T16:34:42.093Z,100519.91
2024-01-15T16:37:10.235Z,100530.44
2024-01-15T16:39:36.629Z,100541.22
2024-01-15T16:42:03.609Z,100541.63
2024-01-15T16:44:31.618Z,100553.09
2024-01-15T16:47:03.725Z,100544.66
2024-01-15T16:49:32.746Z,100544.41
2024-01-15T16:51:59.445Z,100550.44
2024-01-15T16:54:25.871Z,100552.53
2024-01-15T16:56:52.480Z,100546.72
2024-01-15T16:59:18.907Z,100546.94
2024-01-15T17:01:45.926Z,100554.72
2024-01-15T17:04:12.356Z,100557.56
2024-01-15T17:06:38.841Z,100562.00
2024-01-15T17:09:05.322Z,100565.69
2024-01-15T17:11:32.790Z,100566.44
2024-01-15T17:14:00.483Z,100567.09
2024-01-15T17:16:26.926Z,100561.28
2024-01-15T17:18:53.435Z,100562.81
2024-01-15T17:21:20.307Z,100567.16
2024-01-15T17:23:47.782Z,100571.34
2024-01-15T17:26:14.763Z,100581.50
2024-01-15T17:28:41.264Z,100570.91
2024-01-15T17:31:07.732Z,100575.06
2024-01-15T17:33:34.214Z,100575.41
2024-01-15T17:36:01.543Z,100582.13
2024-01-15T17:38:29.100Z,100590.66
2024-01-15T17:40:55.557Z,100593.16
2024-01-15T17:43:21.947Z,100591.19
2024-01-15T17:45:49.477Z,100602.09
2024-01-15T17:48:16.031Z,100597.72
2024-01-15T17:50:42.595Z,100602.09
2024-01-15T17:53:10.284Z,100609.28
2024-01-15T17:55:36.816Z,100605.31
2024-01-15T17:58:03.933Z,100602.28
2024-01-15T18:00:30.305Z,100604.50
2024-01-15T18:02:56.804Z,100609.69
2024-01-15T18:05:23.245Z,100603.66
2024-01-15T18:07:49.778Z,100606.88
2024-01-15T18:10:16.239Z,100616.41
2024-01-15T18:12:42.740Z,100611.41
2024-01-15T18:15:09.555Z,100622.63
2024-01-15T18:17:36.387Z,100615.28
2024-01-15T18:20:04.145Z,100612.34
2024-01-15T18:22:30.963Z,100610.41
2024-01-15T18:24:57.398Z,100626.00
2024-01-15T18:27:23.815Z,100646.13
2024-01-15T18:29:50.202Z,100658.31
2024-01-15T18:32:16.646Z,100664.28
2024-01-15T18:34:44.090Z,100671.25
2024-01-15T18:37:11.190Z,100667.72
2024-01-15T18:39:37.646Z,100678.03
2024-01-15T18:42:04.503Z,100691.72
2024-01-15T18:44:31.173Z,100691.63
2024-01-15T18:46:58.669Z,100688.56
2024-01-15T18:49:25.254Z,100693.53
2024-01-15T18:51:54.401Z,100696.97
2024-01-15T18:54:21.437Z,100691.59
2024-01-15T18:56:47.939Z,100693.44
2024-01-15T18:59:14.588Z,100686.66
2024-01-15T19:01:41.199Z,100691.16
2024-01-15T19:04:08.356Z,100700.16
2024-01-15T19:06:34.896Z,100704.63
2024-01-15T19:09:01.407Z,100704.63
2024-01-15T19:11:28.272Z,100708.88
2024-01-15T19:13:54.824Z,100713.16
2024-01-15T19:16:24.228Z,100695.06
2024-01-15T19:18:51.923Z,100697.75
2024-01-15T19:21:18.446Z,100703.06
2024-01-15T19:23:45.079Z,100711.03
2024-01-15T19:26:21.469Z,100708.75
2024-01-15T19:28:48.656Z,100698.66
2024-01-15T19:31:15.241Z,100705.91
2024-01-15T19:33:43.796Z,100709.66
2024-01-15T19:36:22.019Z,100703.91
2024-01-15T19:38:48.508Z,100717.94
2024-01-15T19:41:15.376Z,100715.50
2024-01-15T19:43:41.901Z,100722.47
2024-01-15T19:46:09.596Z,100728.31
2024-01-15T19:48:40.137Z,100732.53
2024-01-15T19:51:07.075Z,100722.00
2024-01-15T19:53:33.504Z,100726.28
2024-01-15T19:55:59.982Z,100721.03
2024-01-15T19:58:26.383Z,100725.38
2024-01-15T20:00:53.090Z,100722.00
2024-01-15T20:03:19.570Z,100736.72
2024-01-15T20:05:46.082Z,100739.69
2024-01-15T20:08:12.630Z,100740.00
2024-01-15T20:10:39.799Z,100746.25
2024-01-15T20:13:06.202Z,100751.09
2024-01-15T20:15:36.161Z,100751.41
2024-01-15T20:18:02.966Z,100760.09
2024-01-15T20:20:29.543Z,100769.84
2024-01-15T20:22:57.127Z,100764.00
2024-01-15T20:25:23.553Z,100759.66
2024-01-15T20:27:50.315Z,100768.34
2024-01-15T20:30:17.312Z,100771.03
2024-01-15T20:32:43.843Z,100765.34
2024-01-15T20:35:10.377Z,100774.94
2024-01-15T20:37:36.982Z,100767.72
2024-01-15T20:40:06.013Z,100770.38
2024-01-15T20:42:32.684Z,100770.38
2024-01-15T20:44:59.179Z,100780.00
2024-01-15T20:47:25.705Z,100773.25
2024-01-15T20:49:52.222Z,100781.13
2024-01-15T20:52:19.700Z,100780.56
2024-01-15T20:54:46.548Z,100777.31
2024-01-15T20:57:13.038Z,100778.22
2024-01-15T20:59:39.539Z,100786.16
2024-01-15T21:02:06.430Z,100780.97
2024-01-15T21:04:32.910Z,100793.13
2024-01-15T21:07:00.067Z,100794.97
2024-01-15T21:09:26.568Z,100803.66
2024-01-15T21:11:53.312Z,100795.09
2024-01-15T21:14:19.887Z,100794.25
2024-01-15T21:16:47.587Z,100790.88
2024-01-15T21:19:14.047Z,100794.31
2024-01-15T21:21:40.445Z,100794.31
2024-01-15T21:24:07.032Z,100802.09
2024-01-15T21:26:33.598Z,100810.78
2024-01-15T21:29:00.565Z,100814.41
2024-01-15T21:31:27.022Z,100819.66
2024-01-15T21:33:53.416Z,100814.66
2024-01-15T21:36:19.871Z,100812.88
2024-01-15T21:38:46.347Z,100819.75
2024-01-15T21:41:14.056Z,100824.16
2024-01-15T21:43:42.177Z,100822.44
2024-01-15T21:46:08.758Z,100825.03
2024-01-15T21:48:35.343Z,100820.66
2024-01-15T21:51:01.885Z,100820.78
2024-01-15T21:53:28.417Z,100817.47
2024-01-15T21:55:54.944Z,100818.44
2024-01-15T21:58:21.477Z,100813.41
2024-01-15T22:00:47.987Z,100818.69
2024-01-15T22:03:14.811Z,100819.69
2024-01-15T22:05:42.757Z,100817.16
2024-01-15T22:08:10.249Z,100823.09
2024-01-15T22:10:36.853Z,100816.25
2024-01-15T22:13:03.284Z,100829.19
2024-01-15T22:15:29.690Z,100828.09
2024-01-15T22:17:56.646Z,100833.22
2024-01-15T22:20:23.224Z,100841.81
2024-01-15T22:22:49.954Z,100832.19
2024-01-15T22:25:16.463Z,100846.94
2024-01-15T22:27:42.944Z,100852.25
2024-01-15T22:30:11.493Z,100866.22
2024-01-15T22:32:38.040Z,100877.41
2024-01-15T22:35:05.232Z,100868.84
2024-01-15T22:37:32.460Z,100877.78
2024-01-15T22:39:59.550Z,100876.34
2024-01-15T22:42:26.434Z,100873.09
2024-01-15T22:44:53.129Z,100873.88
2024-01-15T22:47:19.709Z,100874.66
2024-01-15T22:49:46.206Z,100878.41
2024-01-15T22:52:12.687Z,100877.75
2024-01-15T22:54:39.178Z,100887.41
2024-01-15T22:57:05.646Z,100894.19
2024-01-15T22:59:32.171Z,100903.28
2024-01-15T23:01:58.579Z,100913.78
2024-01-15T23:04:24.981Z,100913.28
2024-01-15T23:06:51.417Z,100902.16
2024-01-15T23:09:17.845Z,100899.06
2024-01-15T23:11:48.249Z,100899.81
2024-01-15T23:14:14.976Z,100913.97
2024-01-15T23:16:43.554Z,100908.88
2024-01-15T23:19:10.402Z,100909.03
2024-01-15T23:21:36.985Z,100903.97
2024-01-15T23:24:03.561Z,100907.59
2024-01-15T23:26:29.999Z,100909.53
2024-01-15T23:28:56.486Z,100909.88
2024-01-15T23:31:22.866Z,100906.63
2024-01-15T23:33:49.834Z,100918.88
2024-01-15T23:36:16.459Z,100923.25
2024-01-15T23:38:42.889Z,100925.84
2024-01-15T23:41:10.733Z,100922.47
2024-01-15T23:43:39.459Z,100935.50
2024-01-15T23:46:14.042Z,100926.22
2024-01-15T23:48:41.810Z,100926.22
2024-01-15T23:51:09.744Z,100933.09
2024-01-15T23:53:36.215Z,100933.09
2024-01-15T23:56:02.762Z,100929.81
2024-01-15T23:58:29.185Z,100935.38
